sensor_id;sensor_type;location;lat;lon;timestamp;pressure;altitude;pressure_sealevel;temperature;humidity
31337;BME280;22846;42.654;23.314;2022-12-18T00:02:08;95211.44;;;25.26;53.62
31337;BME280;22846;42.654;23.314;2022-12-18T00:04:33;95213.06;;;25.24;53.87
31337;BME280;22846;42.654;23.314;2022-12-18T00:06:59;95216.28;;;25.19;54.14
31337;BME280;22846;42.654;23.314;2022-12-18T00:09:24;95211.69;;;25.16;54.00
31337;BME280;22846;42.654;23.314;2022-12-18T00:11:50;95217.16;;;25.16;53.96
31337;BME280;22846;42.654;23.314;2022-12-18T00:14:15;95221.94;;;25.12;54.21
31337;BME280;22846;42.654;23.314;2022-12-18T00:16:44;95229.00;;;25.09;53.99
31337;BME280;22846;42.654;23.314;2022-12-18T00:19:09;95237.66;;;25.08;54.25
31337;BME280;22846;42.654;23.314;2022-12-18T00:21:35;95230.72;;;25.03;54.39
31337;BME280;22846;42.654;23.314;2022-12-18T00:24:01;95234.22;;;25.04;54.36
31337;BME280;22846;42.654;23.314;2022-12-18T00:26:31;95245.59;;;25.02;54.34
31337;BME280;22846;42.654;23.314;2022-12-18T00:29:12;95240.97;;;24.99;54.37
31337;BME280;22846;42.654;23.314;2022-12-18T00:31:42;95231.13;;;24.86;54.20
31337;BME280;22846;42.654;23.314;2022-12-18T00:34:12;95244.22;;;24.94;54.33
31337;BME280;22846;42.654;23.314;2022-12-18T00:36:38;95218.47;;;24.76;54.26
31337;BME280;22846;42.654;23.314;2022-12-18T00:39:05;95242.75;;;24.90;54.42
31337;BME280;22846;42.654;23.314;2022-12-18T00:41:31;95249.00;;;24.90;54.22
31337;BME280;22846;42.654;23.314;2022-12-18T00:44:17;95256.09;;;24.88;54.54
31337;BME280;22846;42.654;23.314;2022-12-18T00:46:43;95253.78;;;24.86;54.36
31337;BME280;22846;42.654;23.314;2022-12-18T00:49:09;95259.66;;;24.85;54.53
31337;BME280;22846;42.654;23.314;2022-12-18T00:51:35;95257.34;;;24.83;54.47
31337;BME280;22846;42.654;23.314;2022-12-18T00:54:00;95266.00;;;24.82;54.55
31337;BME280;22846;42.654;23.314;2022-12-18T00:56:26;95260.94;;;24.80;54.76
31337;BME280;22846;42.654;23.314;2022-12-18T00:58:52;95270.34;;;24.79;54.87
31337;BME280;22846;42.654;23.314;2022-12-18T01:01:17;95265.44;;;24.71;54.72
31337;BME280;22846;42.654;23.314;2022-12-18T01:03:42;95255.03;;;24.66;54.51
31337;BME280;22846;42.654;23.314;2022-12-18T01:06:11;95268.19;;;24.71;54.76
31337;BME280;22846;42.654;23.314;2022-12-18T01:08:37;95276.72;;;24.73;54.87
31337;BME280;22846;42.654;23.314;2022-12-18T01:11:15;95284.59;;;24.71;54.91
31337;BME280;22846;42.654;23.314;2022-12-18T01:13:41;95280.03;;;24.65;54.86
31337;BME280;22846;42.654;23.314;2022-12-18T01:16:07;95293.63;;;24.68;54.87
31337;BME280;22846;42.654;23.314;2022-12-18T01:18:34;95294.81;;;24.67;54.80
31337;BME280;22846;42.654;23.314;2022-12-18T01:20:59;95281.22;;;24.64;54.74
31337;BME280;22846;42.654;23.314;2022-12-18T01:23:25;95283.94;;;24.64;54.54
31337;BME280;22846;42.654;23.314;2022-12-18T01:25:50;95293.38;;;24.63;54.55
31337;BME280;22846;42.654;23.314;2022-12-18T01:28:16;95295.31;;;24.62;54.80
31337;BME280;22846;42.654;23.314;2022-12-18T01:30:41;95298.06;;;24.62;54.72
31337;BME280;22846;42.654;23.314;2022-12-18T01:33:07;95291.03;;;24.61;54.76
31337;BME280;22846;42.654;23.314;2022-12-18T01:35:32;95301.63;;;24.59;55.00
31337;BME280;22846;42.654;23.314;2022-12-18T01:37:57;95302.03;;;24.58;54.95
31337;BME280;22846;42.654;23.314;2022-12-18T01:40:23;95301.28;;;24.57;54.68
31337;BME280;22846;42.654;23.314;2022-12-18T01:42:52;95303.66;;;24.55;55.04
31337;BME280;22846;42.654;23.314;2022-12-18T01:47:44;95313.06;;;24.54;54.65
31337;BME280;22846;42.654;23.314;2022-12-18T01:50:17;95307.66;;;24.51;55.15
31337;BME280;22846;42.654;23.314;2022-12-18T01:52:46;95304.16;;;24.50;54.97
31337;BME280;22846;42.654;23.314;2022-12-18T01:55:12;95311.94;;;24.52;54.84
31337;BME280;22846;42.654;23.314;2022-12-18T01:57:40;95307.31;;;24.49;55.00
31337;BME280;22846;42.654;23.314;2022-12-18T02:00:18;95311.22;;;24.48;54.86
31337;BME280;22846;42.654;23.314;2022-12-18T02:02:45;95313.19;;;24.47;54.96
31337;BME280;22846;42.654;23.314;2022-12-18T02:05:15;95303.91;;;24.41;54.79
31337;BME280;22846;42.654;23.314;2022-12-18T02:08:11;95311.31;;;24.44;54.85
31337;BME280;22846;42.654;23.314;2022-12-18T02:16:41;95327.75;;;24.41;54.89
31337;BME280;22846;42.654;23.314;2022-12-18T02:27:10;95336.44;;;24.36;54.79
31337;BME280;22846;42.654;23.314;2022-12-18T02:29:50;95330.63;;;24.34;55.11
31337;BME280;22846;42.654;23.314;2022-12-18T02:32:22;95338.03;;;24.33;54.89
31337;BME280;22846;42.654;23.314;2022-12-18T02:34:50;95336.91;;;24.31;55.15
31337;BME280;22846;42.654;23.314;2022-12-18T02:37:18;95350.16;;;24.32;54.84
31337;BME280;22846;42.654;23.314;2022-12-18T02:39:46;95347.84;;;24.31;54.95
31337;BME280;22846;42.654;23.314;2022-12-18T02:42:14;95330.47;;;24.21;55.13
31337;BME280;22846;42.654;23.314;2022-12-18T02:44:47;95341.25;;;24.28;55.27
31337;BME280;22846;42.654;23.314;2022-12-18T02:47:15;95347.13;;;24.27;55.11
31337;BME280;22846;42.654;23.314;2022-12-18T02:57:55;95344.41;;;24.27;55.03
31337;BME280;22846;42.654;23.314;2022-12-18T03:00:37;95342.22;;;24.18;54.88
31337;BME280;22846;42.654;23.314;2022-12-18T03:03:10;95346.44;;;24.23;54.90
31337;BME280;22846;42.654;23.314;2022-12-18T03:05:53;95353.44;;;24.24;55.23
31337;BME280;22846;42.654;23.314;2022-12-18T03:08:25;95353.13;;;24.18;55.12
31337;BME280;22846;42.654;23.314;2022-12-18T03:11:12;95367.53;;;24.22;54.89
31337;BME280;22846;42.654;23.314;2022-12-18T03:13:54;95370.66;;;24.21;55.33
31337;BME280;22846;42.654;23.314;2022-12-18T03:16:30;95365.19;;;24.21;55.25
31337;BME280;22846;42.654;23.314;2022-12-18T03:19:02;95362.13;;;24.19;55.35
31337;BME280;22846;42.654;23.314;2022-12-18T03:21:34;95356.69;;;24.15;55.29
31337;BME280;22846;42.654;23.314;2022-12-18T03:24:06;95366.78;;;24.18;55.36
31337;BME280;22846;42.654;23.314;2022-12-18T03:26:35;95352.50;;;24.11;54.98
31337;BME280;22846;42.654;23.314;2022-12-18T03:29:09;95363.69;;;24.16;55.08
31337;BME280;22846;42.654;23.314;2022-12-18T03:31:37;95361.81;;;24.13;54.84
31337;BME280;22846;42.654;23.314;2022-12-18T03:34:09;95372.38;;;24.11;55.08
31337;BME280;22846;42.654;23.314;2022-12-18T03:36:38;95387.09;;;24.17;54.86
31337;BME280;22846;42.654;23.314;2022-12-18T03:39:03;95387.16;;;24.14;54.83
31337;BME280;22846;42.654;23.314;2022-12-18T03:41:42;95396.53;;;24.13;55.14
31337;BME280;22846;42.654;23.314;2022-12-18T03:44:24;95393.88;;;24.09;55.32
31337;BME280;22846;42.654;23.314;2022-12-18T03:54:45;95421.59;;;24.08;55.05
31337;BME280;22846;42.654;23.314;2022-12-18T03:57:22;95401.06;;;24.00;55.49
31337;BME280;22846;42.654;23.314;2022-12-18T03:59:56;95414.66;;;24.03;55.24
31337;BME280;22846;42.654;23.314;2022-12-18T04:02:23;95417.34;;;24.07;54.91
31337;BME280;22846;42.654;23.314;2022-12-18T04:04:52;95414.59;;;24.07;54.90
31337;BME280;22846;42.654;23.314;2022-12-18T04:07:20;95425.16;;;24.05;54.98
31337;BME280;22846;42.654;23.314;2022-12-18T04:09:46;95412.44;;;23.95;55.21
31337;BME280;22846;42.654;23.314;2022-12-18T04:12:13;95435.72;;;24.03;55.00
31337;BME280;22846;42.654;23.314;2022-12-18T04:14:38;95434.53;;;24.04;55.05
31337;BME280;22846;42.654;23.314;2022-12-18T04:17:04;95442.72;;;24.04;54.93
31337;BME280;22846;42.654;23.314;2022-12-18T04:19:29;95440.78;;;24.04;55.18
31337;BME280;22846;42.654;23.314;2022-12-18T04:21:55;95447.44;;;24.03;55.28
31337;BME280;22846;42.654;23.314;2022-12-18T04:24:20;95450.16;;;24.03;54.83
31337;BME280;22846;42.654;23.314;2022-12-18T04:26:45;95437.69;;;24.02;55.40
31337;BME280;22846;42.654;23.314;2022-12-18T04:29:11;95449.81;;;24.01;55.09
31337;BME280;22846;42.654;23.314;2022-12-18T04:31:37;95430.44;;;23.92;55.02
31337;BME280;22846;42.654;23.314;2022-12-18T04:34:03;95454.50;;;24.01;55.16
31337;BME280;22846;42.654;23.314;2022-12-18T04:36:28;95456.56;;;23.93;55.18
31337;BME280;22846;42.654;23.314;2022-12-18T04:38:54;95458.09;;;23.94;54.82
31337;BME280;22846;42.654;23.314;2022-12-18T04:41:19;95469.72;;;23.98;54.85
31337;BME280;22846;42.654;23.314;2022-12-18T04:43:45;95468.59;;;23.96;54.86
31337;BME280;22846;42.654;23.314;2022-12-18T04:46:10;95472.13;;;23.96;55.24
31337;BME280;22846;42.654;23.314;2022-12-18T04:48:36;95481.88;;;23.97;54.99
31337;BME280;22846;42.654;23.314;2022-12-18T04:51:02;95476.78;;;23.96;54.85
31337;BME280;22846;42.654;23.314;2022-12-18T04:53:27;95480.72;;;23.95;55.25
31337;BME280;22846;42.654;23.314;2022-12-18T04:56:08;95481.13;;;23.93;54.99
31337;BME280;22846;42.654;23.314;2022-12-18T04:58:35;95489.75;;;23.92;55.18
31337;BME280;22846;42.654;23.314;2022-12-18T05:01:01;95489.81;;;23.85;54.91
31337;BME280;22846;42.654;23.314;2022-12-18T05:03:26;95460.75;;;23.75;54.82
31337;BME280;22846;42.654;23.314;2022-12-18T05:05:52;95505.34;;;23.92;54.98
31337;BME280;22846;42.654;23.314;2022-12-18T05:08:18;95499.13;;;23.91;55.27
31337;BME280;22846;42.654;23.314;2022-12-18T05:10:44;95495.59;;;23.91;55.28
31337;BME280;22846;42.654;23.314;2022-12-18T05:13:10;95496.78;;;23.90;54.92
31337;BME280;22846;42.654;23.314;2022-12-18T05:15:35;95504.97;;;23.90;54.89
31337;BME280;22846;42.654;23.314;2022-12-18T05:18:01;95502.25;;;23.90;55.00
31337;BME280;22846;42.654;23.314;2022-12-18T05:20:27;95510.84;;;23.88;55.25
31337;BME280;22846;42.654;23.314;2022-12-18T05:22:54;95517.09;;;23.89;55.16
31337;BME280;22846;42.654;23.314;2022-12-18T05:25:20;95517.09;;;23.89;54.95
31337;BME280;22846;42.654;23.314;2022-12-18T05:27:46;95512.81;;;23.88;54.96
31337;BME280;22846;42.654;23.314;2022-12-18T05:30:12;95525.69;;;23.87;54.87
31337;BME280;22846;42.654;23.314;2022-12-18T05:32:39;95534.66;;;23.88;54.88
31337;BME280;22846;42.654;23.314;2022-12-18T05:35:05;95545.22;;;23.86;55.40
31337;BME280;22846;42.654;23.314;2022-12-18T05:37:31;95555.72;;;23.87;54.87
31337;BME280;22846;42.654;23.314;2022-12-18T05:39:56;95554.16;;;23.86;55.24
31337;BME280;22846;42.654;23.314;2022-12-18T05:42:22;95548.00;;;23.82;54.95
31337;BME280;22846;42.654;23.314;2022-12-18T05:44:47;95555.34;;;23.85;55.15
31337;BME280;22846;42.654;23.314;2022-12-18T05:47:13;95544.53;;;23.78;55.07
31337;BME280;22846;42.654;23.314;2022-12-18T05:49:38;95554.59;;;23.85;55.19
31337;BME280;22846;42.654;23.314;2022-12-18T05:52:04;95561.22;;;23.84;54.91
31337;BME280;22846;42.654;23.314;2022-12-18T05:54:29;95556.94;;;23.83;55.23
31337;BME280;22846;42.654;23.314;2022-12-18T05:56:56;95550.81;;;23.75;55.16
31337;BME280;22846;42.654;23.314;2022-12-18T05:59:22;95551.59;;;23.76;54.97
31337;BME280;22846;42.654;23.314;2022-12-18T06:01:47;95563.69;;;23.75;54.92
31337;BME280;22846;42.654;23.314;2022-12-18T06:04:13;95555.50;;;23.75;55.33
31337;BME280;22846;42.654;23.314;2022-12-18T06:06:38;95572.97;;;23.81;54.90
31337;BME280;22846;42.654;23.314;2022-12-18T06:09:04;95575.75;;;23.74;55.36
31337;BME280;22846;42.654;23.314;2022-12-18T06:11:34;95579.63;;;23.80;55.10
31337;BME280;22846;42.654;23.314;2022-12-18T06:14:00;95578.47;;;23.77;55.33
31337;BME280;22846;42.654;23.314;2022-12-18T06:16:27;95570.75;;;23.69;55.21
31337;BME280;22846;42.654;23.314;2022-12-18T06:18:55;95582.41;;;23.76;55.18
31337;BME280;22846;42.654;23.314;2022-12-18T06:21:20;95582.81;;;23.71;55.13
31337;BME280;22846;42.654;23.314;2022-12-18T06:23:46;95580.44;;;23.77;55.11
31337;BME280;22846;42.654;23.314;2022-12-18T06:26:13;95598.78;;;23.76;55.04
31337;BME280;22846;42.654;23.314;2022-12-18T06:28:38;95599.97;;;23.75;55.31
31337;BME280;22846;42.654;23.314;2022-12-18T06:31:04;95594.50;;;23.75;55.41
31337;BME280;22846;42.654;23.314;2022-12-18T06:33:30;95599.97;;;23.75;55.31
31337;BME280;22846;42.654;23.314;2022-12-18T06:36:12;95555.47;;;23.45;55.29
31337;BME280;22846;42.654;23.314;2022-12-18T06:38:41;95600.31;;;23.74;55.26
31337;BME280;22846;42.654;23.314;2022-12-18T06:41:08;95612.41;;;23.73;54.92
31337;BME280;22846;42.654;23.314;2022-12-18T06:43:34;95601.97;;;23.68;55.10
31337;BME280;22846;42.654;23.314;2022-12-18T06:46:00;95612.41;;;23.73;54.98
31337;BME280;22846;42.654;23.314;2022-12-18T06:48:26;95621.81;;;23.72;55.27
31337;BME280;22846;42.654;23.314;2022-12-18T06:50:51;95632.72;;;23.72;55.10
31337;BME280;22846;42.654;23.314;2022-12-18T06:53:17;95620.25;;;23.71;55.49
31337;BME280;22846;42.654;23.314;2022-12-18T06:55:42;95622.19;;;23.70;55.11
31337;BME280;22846;42.654;23.314;2022-12-18T06:58:08;95624.94;;;23.70;55.00
31337;BME280;22846;42.654;23.314;2022-12-18T07:00:33;95629.66;;;23.66;54.91
31337;BME280;22846;42.654;23.314;2022-12-18T07:02:59;95630.81;;;23.69;54.97
31337;BME280;22846;42.654;23.314;2022-12-18T07:05:24;95632.75;;;23.68;55.26
31337;BME280;22846;42.654;23.314;2022-12-18T07:07:50;95630.06;;;23.65;55.06
31337;BME280;22846;42.654;23.314;2022-12-18T07:10:15;95638.84;;;23.83;54.92
31337;BME280;22846;42.654;23.314;2022-12-18T07:12:40;95637.22;;;23.89;54.20
31337;BME280;22846;42.654;23.314;2022-12-18T07:15:06;95638.63;;;24.00;54.22
31337;BME280;22846;42.654;23.314;2022-12-18T07:17:32;95638.09;;;24.08;54.62
31337;BME280;22846;42.654;23.314;2022-12-18T07:19:57;95628.72;;;24.09;53.99
31337;BME280;22846;42.654;23.314;2022-12-18T07:22:25;95648.91;;;24.19;54.30
31337;BME280;22846;42.654;23.314;2022-12-18T07:24:51;95651.59;;;24.22;53.45
31337;BME280;22846;42.654;23.314;2022-12-18T07:27:16;95656.25;;;24.22;53.40
31337;BME280;22846;42.654;23.314;2022-12-18T07:29:42;95638.38;;;24.17;53.81
31337;BME280;22846;42.654;23.314;2022-12-18T07:32:07;95645.66;;;24.27;53.85
31337;BME280;22846;42.654;23.314;2022-12-18T07:34:33;95660.72;;;24.39;53.67
31337;BME280;22846;42.654;23.314;2022-12-18T07:36:59;95659.09;;;24.45;53.33
31337;BME280;22846;42.654;23.314;2022-12-18T07:39:24;95660.94;;;24.51;53.66
31337;BME280;22846;42.654;23.314;2022-12-18T07:41:49;95663.59;;;24.58;53.49
31337;BME280;22846;42.654;23.314;2022-12-18T07:44:33;95668.56;;;24.63;53.07
31337;BME280;22846;42.654;23.314;2022-12-18T07:46:59;95665.78;;;24.67;53.43
31337;BME280;22846;42.654;23.314;2022-12-18T07:49:24;95668.53;;;24.67;53.10
31337;BME280;22846;42.654;23.314;2022-12-18T07:51:49;95671.19;;;24.70;53.13
31337;BME280;22846;42.654;23.314;2022-12-18T07:54:15;95663.06;;;24.67;52.50
31337;BME280;22846;42.654;23.314;2022-12-18T07:56:40;95678.84;;;24.82;52.78
31337;BME280;22846;42.654;23.314;2022-12-18T07:59:06;95680.38;;;24.83;52.88
31337;BME280;22846;42.654;23.314;2022-12-18T08:01:31;95681.09;;;24.87;52.78
31337;BME280;22846;42.654;23.314;2022-12-18T08:03:58;95685.75;;;24.90;52.72
31337;BME280;22846;42.654;23.314;2022-12-18T08:06:23;95694.66;;;24.94;52.57
31337;BME280;22846;42.654;23.314;2022-12-18T08:08:51;95693.75;;;25.00;52.74
31337;BME280;22846;42.654;23.314;2022-12-18T08:11:16;95702.28;;;25.06;53.06
31337;BME280;22846;42.654;23.314;2022-12-18T08:13:42;95701.44;;;25.12;52.73
31337;BME280;22846;42.654;23.314;2022-12-18T08:16:07;95709.16;;;25.17;52.69
31337;BME280;22846;42.654;23.314;2022-12-18T08:18:33;95704.16;;;25.12;52.37
31337;BME280;22846;42.654;23.314;2022-12-18T08:21:12;95729.03;;;25.21;52.50
31337;BME280;22846;42.654;23.314;2022-12-18T08:23:38;95719.91;;;25.28;52.40
31337;BME280;22846;42.654;23.314;2022-12-18T08:26:04;95719.44;;;25.33;52.12
31337;BME280;22846;42.654;23.314;2022-12-18T08:28:30;95717.06;;;25.35;51.97
31337;BME280;22846;42.654;23.314;2022-12-18T08:30:55;95727.94;;;25.38;52.02
31337;BME280;22846;42.654;23.314;2022-12-18T08:33:21;95729.84;;;25.41;52.16
31337;BME280;22846;42.654;23.314;2022-12-18T08:35:46;95734.50;;;25.44;52.31
31337;BME280;22846;42.654;23.314;2022-12-18T08:38:11;95736.09;;;25.42;52.09
31337;BME280;22846;42.654;23.314;2022-12-18T08:40:37;95742.69;;;25.44;50.71
31337;BME280;22846;42.654;23.314;2022-12-18T08:43:02;95739.19;;;25.44;49.82
31337;BME280;22846;42.654;23.314;2022-12-18T08:45:46;95736.47;;;25.44;49.75
31337;BME280;22846;42.654;23.314;2022-12-18T08:48:12;95737.59;;;25.46;50.20
31337;BME280;22846;42.654;23.314;2022-12-18T08:50:37;95744.63;;;25.47;50.23
31337;BME280;22846;42.654;23.314;2022-12-18T08:53:03;95743.06;;;25.46;50.43
31337;BME280;22846;42.654;23.314;2022-12-18T08:55:28;95748.09;;;25.48;50.79
31337;BME280;22846;42.654;23.314;2022-12-18T08:57:54;95739.91;;;25.48;50.68
31337;BME280;22846;42.654;23.314;2022-12-18T09:00:19;95741.44;;;25.49;50.86
31337;BME280;22846;42.654;23.314;2022-12-18T09:02:45;95737.59;;;25.46;50.70
31337;BME280;22846;42.654;23.314;2022-12-18T09:05:10;95739.91;;;25.48;50.78
31337;BME280;22846;42.654;23.314;2022-12-18T09:07:36;95737.94;;;25.48;51.05
31337;BME280;22846;42.654;23.314;2022-12-18T09:10:01;95737.16;;;25.48;50.90
31337;BME280;22846;42.654;23.314;2022-12-18T09:12:27;95731.69;;;25.48;51.01
31337;BME280;22846;42.654;23.314;2022-12-18T09:14:52;95732.88;;;25.47;51.01
31337;BME280;22846;42.654;23.314;2022-12-18T09:17:17;95731.69;;;25.48;50.82
31337;BME280;22846;42.654;23.314;2022-12-18T09:19:43;95731.69;;;25.48;50.80
31337;BME280;22846;42.654;23.314;2022-12-18T09:22:09;95732.47;;;25.48;51.04
31337;BME280;22846;42.654;23.314;2022-12-18T09:24:35;95735.22;;;25.48;51.05
31337;BME280;22846;42.654;23.314;2022-12-18T09:27:00;95732.88;;;25.47;51.07
31337;BME280;22846;42.654;23.314;2022-12-18T09:29:25;95730.94;;;25.47;51.04
31337;BME280;22846;42.654;23.314;2022-12-18T09:31:51;95731.69;;;25.48;51.31
31337;BME280;22846;42.654;23.314;2022-12-18T09:34:16;95739.91;;;25.48;51.04
31337;BME280;22846;42.654;23.314;2022-12-18T09:36:42;95734.06;;;25.46;51.09
31337;BME280;22846;42.654;23.314;2022-12-18T09:39:08;95737.94;;;25.48;51.36
31337;BME280;22846;42.654;23.314;2022-12-18T09:46:47;95740.25;;;25.50;51.17
31337;BME280;22846;42.654;23.314;2022-12-18T09:49:18;95741.81;;;25.51;51.53
31337;BME280;22846;42.654;23.314;2022-12-18T09:51:54;95740.25;;;25.50;51.52
31337;BME280;22846;42.654;23.314;2022-12-18T09:54:30;95738.28;;;25.50;51.57
31337;BME280;22846;42.654;23.314;2022-12-18T09:56:58;95736.34;;;25.51;51.44
31337;BME280;22846;42.654;23.314;2022-12-18T09:59:27;95726.94;;;25.52;51.15
31337;BME280;22846;42.654;23.314;2022-12-18T10:01:56;95734.72;;;25.53;51.48
31337;BME280;22846;42.654;23.314;2022-12-18T10:04:21;95736.28;;;25.54;51.43
31337;BME280;22846;42.654;23.314;2022-12-18T10:12:05;95733.97;;;25.53;51.19
31337;BME280;22846;42.654;23.314;2022-12-18T10:15:06;95720.03;;;25.44;51.50
31337;BME280;22846;42.654;23.314;2022-12-18T10:20:13;95735.91;;;25.52;51.43
31337;BME280;22846;42.654;23.314;2022-12-18T10:25:26;95745.25;;;25.55;51.35
31337;BME280;22846;42.654;23.314;2022-12-18T10:28:00;95742.50;;;25.55;51.30
31337;BME280;22846;42.654;23.314;2022-12-18T10:30:32;95737.81;;;25.55;51.32
31337;BME280;22846;42.654;23.314;2022-12-18T10:33:01;95744.06;;;25.56;51.51
31337;BME280;22846;42.654;23.314;2022-12-18T10:35:27;95738.59;;;25.56;51.49
31337;BME280;22846;42.654;23.314;2022-12-18T10:40:28;95737.81;;;25.55;51.06
31337;BME280;22846;42.654;23.314;2022-12-18T10:43:12;95738.59;;;25.56;51.39
31337;BME280;22846;42.654;23.314;2022-12-18T10:45:38;95733.09;;;25.56;51.26
31337;BME280;22846;42.654;23.314;2022-12-18T10:48:04;95730.38;;;25.56;51.31
31337;BME280;22846;42.654;23.314;2022-12-18T10:50:47;95745.25;;;25.55;51.49
31337;BME280;22846;42.654;23.314;2022-12-18T10:53:19;95733.09;;;25.56;51.14
31337;BME280;22846;42.654;23.314;2022-12-18T10:55:46;95732.72;;;25.57;50.91
31337;BME280;22846;42.654;23.314;2022-12-18T11:08:32;95742.44;;;25.58;51.35
31337;BME280;22846;42.654;23.314;2022-12-18T11:10:57;95731.50;;;25.58;51.02
31337;BME280;22846;42.654;23.314;2022-12-18T11:13:25;95743.22;;;25.59;50.78
31337;BME280;22846;42.654;23.314;2022-12-18T11:15:51;95744.78;;;25.60;51.05
31337;BME280;22846;42.654;23.314;2022-12-18T11:21:04;95739.31;;;25.60;51.15
31337;BME280;22846;42.654;23.314;2022-12-18T11:23:30;95756.50;;;25.60;50.99
31337;BME280;22846;42.654;23.314;2022-12-18T11:25:58;95738.50;;;25.59;50.94
31337;BME280;22846;42.654;23.314;2022-12-18T11:33:37;95735.78;;;25.59;50.68
31337;BME280;22846;42.654;23.314;2022-12-18T11:36:08;95739.31;;;25.60;50.82
31337;BME280;22846;42.654;23.314;2022-12-18T11:38:39;95733.84;;;25.60;51.00
31337;BME280;22846;42.654;23.314;2022-12-18T11:44:32;95734.72;;;25.53;50.74
31337;BME280;22846;42.654;23.314;2022-12-18T11:47:13;95746.72;;;25.59;50.75
31337;BME280;22846;42.654;23.314;2022-12-18T11:49:42;95747.09;;;25.61;50.80
31337;BME280;22846;42.654;23.314;2022-12-18T11:52:18;95750.25;;;25.60;50.83
31337;BME280;22846;42.654;23.314;2022-12-18T11:54:44;95751.81;;;25.61;50.65
31337;BME280;22846;42.654;23.314;2022-12-18T12:03:00;95733.03;;;25.59;50.73
31337;BME280;22846;42.654;23.314;2022-12-18T12:16:26;95737.75;;;25.59;50.67
31337;BME280;22846;42.654;23.314;2022-12-18T12:21:42;95732.28;;;25.59;50.46
31337;BME280;22846;42.654;23.314;2022-12-18T12:26:55;95731.84;;;25.60;50.79
31337;BME280;22846;42.654;23.314;2022-12-18T12:35:00;95741.63;;;25.61;50.67
31337;BME280;22846;42.654;23.314;2022-12-18T12:40:13;95749.81;;;25.61;50.55
31337;BME280;22846;42.654;23.314;2022-12-18T12:42:51;95746.34;;;25.61;50.62
31337;BME280;22846;42.654;23.314;2022-12-18T12:46:00;95740.84;;;25.61;50.34
31337;BME280;22846;42.654;23.314;2022-12-18T12:48:58;95733.03;;;25.59;50.17
31337;BME280;22846;42.654;23.314;2022-12-18T12:51:32;95738.66;;;25.52;50.06
31337;BME280;22846;42.654;23.314;2022-12-18T12:54:00;95759.66;;;25.59;49.83
31337;BME280;22846;42.654;23.314;2022-12-18T12:56:51;95744.78;;;25.60;50.12
31337;BME280;22846;42.654;23.314;2022-12-18T13:02:29;95736.81;;;24.70;33.21
31337;BME280;22846;42.654;23.314;2022-12-18T13:05:19;95751.34;;;24.34;43.29
31337;BME280;22846;42.654;23.314;2022-12-18T13:13:02;95767.47;;;24.55;44.67
31337;BME280;22846;42.654;23.314;2022-12-18T13:15:37;95772.03;;;24.65;45.04
31337;BME280;22846;42.654;23.314;2022-12-18T13:20:50;95776.28;;;24.95;46.03
31337;BME280;22846;42.654;23.314;2022-12-18T13:23:29;95772.97;;;25.07;46.50
31337;BME280;22846;42.654;23.314;2022-12-18T13:25:56;95777.53;;;25.17;46.70
31337;BME280;22846;42.654;23.314;2022-12-18T13:30:55;95791.78;;;25.32;46.55
31337;BME280;22846;42.654;23.314;2022-12-18T13:36:01;95792.03;;;25.41;46.93
31337;BME280;22846;42.654;23.314;2022-12-18T13:38:38;95787.63;;;25.47;46.68
31337;BME280;22846;42.654;23.314;2022-12-18T13:43:43;95787.50;;;25.54;47.21
31337;BME280;22846;42.654;23.314;2022-12-18T13:48:50;95799.66;;;25.53;47.24
31337;BME280;22846;42.654;23.314;2022-12-18T13:51:19;95799.22;;;25.54;47.17
31337;BME280;22846;42.654;23.314;2022-12-18T13:53:52;95805.84;;;25.57;47.38
31337;BME280;22846;42.654;23.314;2022-12-18T13:56:21;95801.78;;;25.64;47.03
31337;BME280;22846;42.654;23.314;2022-12-18T13:59:12;95810.00;;;25.64;47.55
31337;BME280;22846;42.654;23.314;2022-12-18T14:01:47;95808.81;;;25.65;47.53
31337;BME280;22846;42.654;23.314;2022-12-18T14:04:33;95815.47;;;25.64;47.95
31337;BME280;22846;42.654;23.314;2022-12-18T14:07:13;95810.41;;;25.63;47.75
31337;BME280;22846;42.654;23.314;2022-12-18T14:09:46;95818.94;;;25.68;48.04
31337;BME280;22846;42.654;23.314;2022-12-18T14:12:20;95807.63;;;25.66;46.65
31337;BME280;22846;42.654;23.314;2022-12-18T14:15:13;95802.97;;;25.63;47.25
31337;BME280;22846;42.654;23.314;2022-12-18T14:17:46;95811.63;;;25.62;47.78
31337;BME280;22846;42.654;23.314;2022-12-18T14:20:15;95818.69;;;25.60;47.22
31337;BME280;22846;42.654;23.314;2022-12-18T14:22:46;95828.09;;;25.59;46.96
31337;BME280;22846;42.654;23.314;2022-12-18T14:25:19;95833.22;;;25.57;47.58
31337;BME280;22846;42.654;23.314;2022-12-18T14:27:48;95830.34;;;25.63;47.41
31337;BME280;22846;42.654;23.314;2022-12-18T14:30:40;95831.50;;;25.66;46.92
31337;BME280;22846;42.654;23.314;2022-12-18T14:35:34;95831.09;;;25.67;46.96
31337;BME280;22846;42.654;23.314;2022-12-18T14:38:18;95827.56;;;25.67;47.31
31337;BME280;22846;42.654;23.314;2022-12-18T14:40:44;95827.53;;;25.70;47.07
31337;BME280;22846;42.654;23.314;2022-12-18T14:43:10;95829.03;;;25.71;47.86
31337;BME280;22846;42.654;23.314;2022-12-18T14:45:37;95815.34;;;25.71;48.02
31337;BME280;22846;42.654;23.314;2022-12-18T14:50:36;95795.59;;;25.61;48.05
31337;BME280;22846;42.654;23.314;2022-12-18T14:53:01;95825.09;;;25.76;48.38
31337;BME280;22846;42.654;23.314;2022-12-18T14:55:27;95819.97;;;25.78;48.07
31337;BME280;22846;42.654;23.314;2022-12-18T14:57:54;95818.78;;;25.79;48.20
31337;BME280;22846;42.654;23.314;2022-12-18T15:00:22;95834.44;;;25.78;47.99
31337;BME280;22846;42.654;23.314;2022-12-18T15:02:57;95839.06;;;25.81;48.05
31337;BME280;22846;42.654;23.314;2022-12-18T15:05:29;95833.19;;;25.83;47.79
31337;BME280;22846;42.654;23.314;2022-12-18T15:07:57;95837.00;;;25.89;48.95
31337;BME280;22846;42.654;23.314;2022-12-18T15:20:27;95844.44;;;26.11;49.84